sensor_id;sensor_type;location;lat;lon;timestamp;P1;durP1;ratioP1;P2;durP2;ratioP2
23222;SDS011;11780;13.904;100.620;2022-11-20T00:00:20;26.48;;;14.60;;
23222;SDS011;11780;13.904;100.620;2022-11-20T00:02:50;24.52;;;13.98;;
23222;SDS011;11780;13.904;100.620;2022-11-20T00:05:20;28.38;;;15.77;;
23222;SDS011;11780;13.904;100.620;2022-11-20T00:07:51;25.88;;;14.98;;
23222;SDS011;11780;13.904;100.620;2022-11-20T00:10:21;29.35;;;15.13;;
23222;SDS011;11780;13.904;100.620;2022-11-20T00:12:51;25.70;;;14.90;;
23222;SDS011;11780;13.904;100.620;2022-11-20T00:15:21;26.98;;;14.90;;
23222;SDS011;11780;13.904;100.620;2022-11-20T00:17:51;23.58;;;14.18;;
23222;SDS011;11780;13.904;100.620;2022-11-20T00:20:21;29.40;;;14.40;;
23222;SDS011;11780;13.904;100.620;2022-11-20T00:22:52;25.25;;;13.35;;
23222;SDS011;11780;13.904;100.620;2022-11-20T00:25:22;24.40;;;13.10;;
23222;SDS011;11780;13.904;100.620;2022-11-20T00:27:52;21.85;;;12.65;;
23222;SDS011;11780;13.904;100.620;2022-11-20T00:30:22;25.90;;;15.27;;
23222;SDS011;11780;13.904;100.620;2022-11-20T00:32:52;21.77;;;13.57;;
23222;SDS011;11780;13.904;100.620;2022-11-20T00:35:23;25.52;;;14.20;;
23222;SDS011;11780;13.904;100.620;2022-11-20T00:37:53;20.20;;;13.63;;
23222;SDS011;11780;13.904;100.620;2022-11-20T00:40:23;25.73;;;13.55;;
23222;SDS011;11780;13.904;100.620;2022-11-20T00:42:54;22.80;;;13.43;;
23222;SDS011;11780;13.904;100.620;2022-11-20T00:45:24;23.00;;;12.95;;
23222;SDS011;11780;13.904;100.620;2022-11-20T00:47:54;21.20;;;13.52;;
23222;SDS011;11780;13.904;100.620;2022-11-20T00:50:24;25.05;;;13.88;;
23222;SDS011;11780;13.904;100.620;2022-11-20T00:52:54;25.07;;;13.93;;
23222;SDS011;11780;13.904;100.620;2022-11-20T00:55:25;20.17;;;12.20;;
23222;SDS011;11780;13.904;100.620;2022-11-20T00:57:55;26.80;;;14.05;;
23222;SDS011;11780;13.904;100.620;2022-11-20T01:00:30;25.67;;;13.10;;
23222;SDS011;11780;13.904;100.620;2022-11-20T01:03:00;28.10;;;13.73;;
23222;SDS011;11780;13.904;100.620;2022-11-20T01:05:33;25.42;;;14.90;;
23222;SDS011;11780;13.904;100.620;2022-11-20T01:08:05;18.27;;;12.45;;
23222;SDS011;11780;13.904;100.620;2022-11-20T01:10:35;20.85;;;12.68;;
23222;SDS011;11780;13.904;100.620;2022-11-20T01:13:05;26.13;;;13.50;;
23222;SDS011;11780;13.904;100.620;2022-11-20T01:15:54;25.73;;;12.35;;
23222;SDS011;11780;13.904;100.620;2022-11-20T01:18:24;24.75;;;12.65;;
23222;SDS011;11780;13.904;100.620;2022-11-20T01:20:54;22.13;;;11.90;;
23222;SDS011;11780;13.904;100.620;2022-11-20T01:23:24;23.23;;;11.45;;
23222;SDS011;11780;13.904;100.620;2022-11-20T01:25:54;21.92;;;11.32;;
23222;SDS011;11780;13.904;100.620;2022-11-20T01:28:25;20.80;;;11.55;;
23222;SDS011;11780;13.904;100.620;2022-11-20T01:30:55;21.23;;;11.25;;
23222;SDS011;11780;13.904;100.620;2022-11-20T01:33:26;44.72;;;32.75;;
23222;SDS011;11780;13.904;100.620;2022-11-20T01:36:03;19.55;;;11.68;;
23222;SDS011;11780;13.904;100.620;2022-11-20T01:38:34;17.52;;;10.13;;
23222;SDS011;11780;13.904;100.620;2022-11-20T01:41:05;17.25;;;10.15;;
23222;SDS011;11780;13.904;100.620;2022-11-20T01:51:18;20.08;;;11.02;;
23222;SDS011;11780;13.904;100.620;2022-11-20T01:54:04;18.25;;;10.48;;
23222;SDS011;11780;13.904;100.620;2022-11-20T01:56:40;23.38;;;11.73;;
23222;SDS011;11780;13.904;100.620;2022-11-20T01:59:14;23.33;;;11.43;;
23222;SDS011;11780;13.904;100.620;2022-11-20T02:01:48;17.52;;;11.38;;
23222;SDS011;11780;13.904;100.620;2022-11-20T02:04:19;22.45;;;12.35;;
23222;SDS011;11780;13.904;100.620;2022-11-20T02:09:30;18.67;;;10.30;;
23222;SDS011;11780;13.904;100.620;2022-11-20T02:12:01;20.37;;;10.20;;
23222;SDS011;11780;13.904;100.620;2022-11-20T02:17:02;21.02;;;11.50;;
23222;SDS011;11780;13.904;100.620;2022-11-20T02:19:32;17.27;;;9.67;;
23222;SDS011;11780;13.904;100.620;2022-11-20T02:24:43;22.63;;;11.50;;
23222;SDS011;11780;13.904;100.620;2022-11-20T02:27:17;17.42;;;9.65;;
23222;SDS011;11780;13.904;100.620;2022-11-20T02:32:33;19.42;;;10.55;;
23222;SDS011;11780;13.904;100.620;2022-11-20T02:37:48;17.73;;;10.30;;
23222;SDS011;11780;13.904;100.620;2022-11-20T02:40:22;16.08;;;9.93;;
23222;SDS011;11780;13.904;100.620;2022-11-20T02:42:53;61.10;;;41.42;;
23222;SDS011;11780;13.904;100.620;2022-11-20T02:45:25;16.45;;;9.90;;
23222;SDS011;11780;13.904;100.620;2022-11-20T02:47:55;16.58;;;9.43;;
23222;SDS011;11780;13.904;100.620;2022-11-20T02:50:25;14.57;;;9.77;;
23222;SDS011;11780;13.904;100.620;2022-11-20T02:52:56;13.68;;;10.07;;
23222;SDS011;11780;13.904;100.620;2022-11-20T02:55:26;18.00;;;10.73;;
23222;SDS011;11780;13.904;100.620;2022-11-20T02:57:56;16.67;;;10.00;;
23222;SDS011;11780;13.904;100.620;2022-11-20T03:00:27;17.80;;;9.70;;
23222;SDS011;11780;13.904;100.620;2022-11-20T03:02:57;15.82;;;10.07;;
23222;SDS011;11780;13.904;100.620;2022-11-20T03:05:27;14.55;;;9.68;;
23222;SDS011;11780;13.904;100.620;2022-11-20T03:07:57;14.60;;;10.07;;
23222;SDS011;11780;13.904;100.620;2022-11-20T03:10:28;15.00;;;9.55;;
23222;SDS011;11780;13.904;100.620;2022-11-20T03:12:58;16.75;;;9.38;;
23222;SDS011;11780;13.904;100.620;2022-11-20T03:15:29;19.63;;;9.15;;
23222;SDS011;11780;13.904;100.620;2022-11-20T03:18:00;13.77;;;8.95;;
23222;SDS011;11780;13.904;100.620;2022-11-20T03:20:30;14.10;;;9.30;;
23222;SDS011;11780;13.904;100.620;2022-11-20T03:23:03;16.60;;;10.30;;
23222;SDS011;11780;13.904;100.620;2022-11-20T03:25:33;15.43;;;9.80;;
23222;SDS011;11780;13.904;100.620;2022-11-20T03:28:05;16.45;;;11.98;;
23222;SDS011;11780;13.904;100.620;2022-11-20T03:30:35;14.40;;;9.30;;
23222;SDS011;11780;13.904;100.620;2022-11-20T03:33:05;24.25;;;18.50;;
23222;SDS011;11780;13.904;100.620;2022-11-20T03:35:35;16.27;;;11.55;;
23222;SDS011;11780;13.904;100.620;2022-11-20T03:38:06;14.40;;;9.60;;
23222;SDS011;11780;13.904;100.620;2022-11-20T03:40:36;28.55;;;18.55;;
23222;SDS011;11780;13.904;100.620;2022-11-20T03:43:06;21.50;;;12.23;;
23222;SDS011;11780;13.904;100.620;2022-11-20T03:45:36;30.05;;;24.02;;
23222;SDS011;11780;13.904;100.620;2022-11-20T03:48:07;17.00;;;9.05;;
23222;SDS011;11780;13.904;100.620;2022-11-20T03:50:37;15.68;;;9.50;;
23222;SDS011;11780;13.904;100.620;2022-11-20T03:53:07;15.90;;;8.77;;
23222;SDS011;11780;13.904;100.620;2022-11-20T03:55:37;16.60;;;9.40;;
23222;SDS011;11780;13.904;100.620;2022-11-20T03:58:08;12.35;;;8.77;;
23222;SDS011;11780;13.904;100.620;2022-11-20T04:00:39;15.65;;;8.63;;
23222;SDS011;11780;13.904;100.620;2022-11-20T04:03:09;15.45;;;8.98;;
23222;SDS011;11780;13.904;100.620;2022-11-20T04:05:39;15.57;;;8.55;;
23222;SDS011;11780;13.904;100.620;2022-11-20T04:08:09;14.40;;;8.77;;
23222;SDS011;11780;13.904;100.620;2022-11-20T04:10:40;14.40;;;8.65;;
23222;SDS011;11780;13.904;100.620;2022-11-20T04:13:11;12.57;;;8.57;;
23222;SDS011;11780;13.904;100.620;2022-11-20T04:15:41;16.42;;;8.52;;
23222;SDS011;11780;13.904;100.620;2022-11-20T04:18:11;13.63;;;8.80;;
23222;SDS011;11780;13.904;100.620;2022-11-20T04:20:41;17.98;;;8.77;;
23222;SDS011;11780;13.904;100.620;2022-11-20T04:23:11;13.07;;;8.52;;
23222;SDS011;11780;13.904;100.620;2022-11-20T04:25:41;13.80;;;8.18;;
23222;SDS011;11780;13.904;100.620;2022-11-20T04:28:11;14.57;;;8.05;;
23222;SDS011;11780;13.904;100.620;2022-11-20T04:30:41;14.57;;;8.85;;
23222;SDS011;11780;13.904;100.620;2022-11-20T04:33:12;23.58;;;10.10;;
23222;SDS011;11780;13.904;100.620;2022-11-20T04:35:42;11.45;;;7.50;;
23222;SDS011;11780;13.904;100.620;2022-11-20T04:38:16;17.55;;;9.07;;
23222;SDS011;11780;13.904;100.620;2022-11-20T04:40:47;18.60;;;9.23;;
23222;SDS011;11780;13.904;100.620;2022-11-20T04:43:17;19.63;;;9.70;;
23222;SDS011;11780;13.904;100.620;2022-11-20T04:45:51;14.30;;;8.82;;
23222;SDS011;11780;13.904;100.620;2022-11-20T04:48:25;15.80;;;8.70;;
23222;SDS011;11780;13.904;100.620;2022-11-20T04:50:56;20.98;;;11.43;;
23222;SDS011;11780;13.904;100.620;2022-11-20T04:53:28;15.70;;;9.10;;
23222;SDS011;11780;13.904;100.620;2022-11-20T04:56:01;13.35;;;7.95;;
23222;SDS011;11780;13.904;100.620;2022-11-20T04:58:34;16.42;;;9.07;;
23222;SDS011;11780;13.904;100.620;2022-11-20T05:01:06;10.82;;;7.78;;
23222;SDS011;11780;13.904;100.620;2022-11-20T05:03:42;17.00;;;9.10;;
23222;SDS011;11780;13.904;100.620;2022-11-20T05:06:16;12.30;;;7.82;;
23222;SDS011;11780;13.904;100.620;2022-11-20T05:08:48;18.40;;;8.65;;
23222;SDS011;11780;13.904;100.620;2022-11-20T05:13:50;16.73;;;8.80;;
23222;SDS011;11780;13.904;100.620;2022-11-20T05:16:22;14.60;;;8.85;;
23222;SDS011;11780;13.904;100.620;2022-11-20T05:18:53;14.55;;;8.50;;
23222;SDS011;11780;13.904;100.620;2022-11-20T05:23:54;15.07;;;8.30;;
23222;SDS011;11780;13.904;100.620;2022-11-20T05:26:25;16.13;;;8.73;;
23222;SDS011;11780;13.904;100.620;2022-11-20T05:28:55;16.40;;;8.20;;
23222;SDS011;11780;13.904;100.620;2022-11-20T05:31:25;13.85;;;8.45;;
23222;SDS011;11780;13.904;100.620;2022-11-20T05:33:56;12.77;;;7.15;;
23222;SDS011;11780;13.904;100.620;2022-11-20T05:38:56;16.17;;;8.15;;
23222;SDS011;11780;13.904;100.620;2022-11-20T05:41:28;14.13;;;8.38;;
23222;SDS011;11780;13.904;100.620;2022-11-20T05:43:58;12.57;;;7.60;;
23222;SDS011;11780;13.904;100.620;2022-11-20T05:46:29;13.75;;;8.02;;
23222;SDS011;11780;13.904;100.620;2022-11-20T05:48:59;12.70;;;7.97;;
23222;SDS011;11780;13.904;100.620;2022-11-20T05:51:30;15.55;;;9.15;;
23222;SDS011;11780;13.904;100.620;2022-11-20T05:54:00;13.10;;;8.15;;
23222;SDS011;11780;13.904;100.620;2022-11-20T05:56:30;18.38;;;12.60;;
23222;SDS011;11780;13.904;100.620;2022-11-20T05:59:00;12.20;;;7.40;;
23222;SDS011;11780;13.904;100.620;2022-11-20T06:01:31;15.18;;;8.68;;
23222;SDS011;11780;13.904;100.620;2022-11-20T06:04:01;15.68;;;8.80;;
23222;SDS011;11780;13.904;100.620;2022-11-20T06:06:32;13.93;;;8.52;;
23222;SDS011;11780;13.904;100.620;2022-11-20T06:09:02;12.80;;;8.13;;
23222;SDS011;11780;13.904;100.620;2022-11-20T06:11:32;13.15;;;7.97;;
23222;SDS011;11780;13.904;100.620;2022-11-20T06:14:03;12.27;;;8.25;;
23222;SDS011;11780;13.904;100.620;2022-11-20T06:16:33;13.32;;;8.05;;
23222;SDS011;11780;13.904;100.620;2022-11-20T06:19:03;15.25;;;8.38;;
23222;SDS011;11780;13.904;100.620;2022-11-20T06:21:33;16.13;;;9.15;;
23222;SDS011;11780;13.904;100.620;2022-11-20T06:24:03;23.00;;;20.45;;
23222;SDS011;11780;13.904;100.620;2022-11-20T06:26:33;17.27;;;8.90;;
23222;SDS011;11780;13.904;100.620;2022-11-20T06:29:04;13.00;;;8.20;;
23222;SDS011;11780;13.904;100.620;2022-11-20T06:31:34;15.30;;;8.70;;
23222;SDS011;11780;13.904;100.620;2022-11-20T06:34:07;13.65;;;7.90;;
23222;SDS011;11780;13.904;100.620;2022-11-20T06:36:38;10.15;;;7.47;;
23222;SDS011;11780;13.904;100.620;2022-11-20T06:39:08;11.75;;;7.65;;
23222;SDS011;11780;13.904;100.620;2022-11-20T06:41:38;14.23;;;7.68;;
23222;SDS011;11780;13.904;100.620;2022-11-20T06:44:08;13.30;;;7.25;;
23222;SDS011;11780;13.904;100.620;2022-11-20T06:46:40;12.75;;;7.22;;
23222;SDS011;11780;13.904;100.620;2022-11-20T06:49:10;13.52;;;7.75;;
23222;SDS011;11780;13.904;100.620;2022-11-20T06:51:40;12.95;;;7.93;;
23222;SDS011;11780;13.904;100.620;2022-11-20T06:54:11;13.73;;;8.52;;
23222;SDS011;11780;13.904;100.620;2022-11-20T06:56:41;11.80;;;7.97;;
23222;SDS011;11780;13.904;100.620;2022-11-20T06:59:11;18.98;;;10.38;;
23222;SDS011;11780;13.904;100.620;2022-11-20T07:01:42;15.33;;;10.57;;
23222;SDS011;11780;13.904;100.620;2022-11-20T07:04:12;13.73;;;8.23;;
23222;SDS011;11780;13.904;100.620;2022-11-20T07:06:42;10.95;;;7.88;;
23222;SDS011;11780;13.904;100.620;2022-11-20T07:09:13;11.90;;;7.63;;
23222;SDS011;11780;13.904;100.620;2022-11-20T07:11:43;16.42;;;8.25;;
23222;SDS011;11780;13.904;100.620;2022-11-20T07:14:13;11.02;;;7.75;;
23222;SDS011;11780;13.904;100.620;2022-11-20T07:16:43;13.45;;;7.93;;
23222;SDS011;11780;13.904;100.620;2022-11-20T07:19:13;12.98;;;7.57;;
23222;SDS011;11780;13.904;100.620;2022-11-20T07:21:44;13.53;;;7.90;;
23222;SDS011;11780;13.904;100.620;2022-11-20T07:24:14;14.52;;;8.57;;
23222;SDS011;11780;13.904;100.620;2022-11-20T07:26:48;13.63;;;7.45;;
23222;SDS011;11780;13.904;100.620;2022-11-20T07:29:19;13.02;;;7.25;;
23222;SDS011;11780;13.904;100.620;2022-11-20T07:31:50;10.83;;;7.73;;
23222;SDS011;11780;13.904;100.620;2022-11-20T07:34:20;11.55;;;7.32;;
23222;SDS011;11780;13.904;100.620;2022-11-20T07:36:50;11.95;;;7.35;;
23222;SDS011;11780;13.904;100.620;2022-11-20T07:39:21;11.90;;;7.28;;
23222;SDS011;11780;13.904;100.620;2022-11-20T07:41:51;16.23;;;7.43;;
23222;SDS011;11780;13.904;100.620;2022-11-20T07:44:21;12.07;;;7.10;;
23222;SDS011;11780;13.904;100.620;2022-11-20T07:46:51;11.90;;;7.43;;
23222;SDS011;11780;13.904;100.620;2022-11-20T07:49:21;12.85;;;7.65;;
23222;SDS011;11780;13.904;100.620;2022-11-20T07:51:52;13.02;;;7.68;;
23222;SDS011;11780;13.904;100.620;2022-11-20T07:54:30;12.38;;;7.53;;
23222;SDS011;11780;13.904;100.620;2022-11-20T07:57:00;12.55;;;7.75;;
23222;SDS011;11780;13.904;100.620;2022-11-20T07:59:30;13.80;;;7.85;;
23222;SDS011;11780;13.904;100.620;2022-11-20T08:02:00;15.35;;;7.75;;
23222;SDS011;11780;13.904;100.620;2022-11-20T08:04:30;12.95;;;7.35;;
23222;SDS011;11780;13.904;100.620;2022-11-20T08:07:02;11.25;;;7.43;;
23222;SDS011;11780;13.904;100.620;2022-11-20T08:09:32;14.13;;;7.80;;
23222;SDS011;11780;13.904;100.620;2022-11-20T08:12:03;13.13;;;7.55;;
23222;SDS011;11780;13.904;100.620;2022-11-20T08:14:51;12.70;;;7.80;;
23222;SDS011;11780;13.904;100.620;2022-11-20T08:17:21;13.82;;;8.27;;
23222;SDS011;11780;13.904;100.620;2022-11-20T08:19:52;15.93;;;7.68;;
23222;SDS011;11780;13.904;100.620;2022-11-20T08:22:22;11.27;;;7.55;;
23222;SDS011;11780;13.904;100.620;2022-11-20T08:24:52;10.10;;;6.83;;
23222;SDS011;11780;13.904;100.620;2022-11-20T08:27:23;17.33;;;8.23;;
23222;SDS011;11780;13.904;100.620;2022-11-20T08:29:53;11.70;;;7.00;;
23222;SDS011;11780;13.904;100.620;2022-11-20T08:32:23;14.20;;;7.57;;
23222;SDS011;11780;13.904;100.620;2022-11-20T08:34:54;15.52;;;8.40;;
23222;SDS011;11780;13.904;100.620;2022-11-20T08:37:24;10.73;;;7.50;;
23222;SDS011;11780;13.904;100.620;2022-11-20T08:39:54;10.68;;;7.05;;
23222;SDS011;11780;13.904;100.620;2022-11-20T08:42:26;10.48;;;7.28;;
23222;SDS011;11780;13.904;100.620;2022-11-20T08:44:56;12.80;;;7.50;;
23222;SDS011;11780;13.904;100.620;2022-11-20T08:47:26;9.55;;;6.53;;
23222;SDS011;11780;13.904;100.620;2022-11-20T08:49:57;10.88;;;7.03;;
23222;SDS011;11780;13.904;100.620;2022-11-20T08:52:27;10.30;;;7.43;;
23222;SDS011;11780;13.904;100.620;2022-11-20T08:55:00;11.25;;;6.63;;
23222;SDS011;11780;13.904;100.620;2022-11-20T08:57:34;11.32;;;6.90;;
23222;SDS011;11780;13.904;100.620;2022-11-20T09:00:07;10.68;;;7.32;;
23222;SDS011;11780;13.904;100.620;2022-11-20T09:02:40;12.82;;;7.50;;
23222;SDS011;11780;13.904;100.620;2022-11-20T09:05:10;11.03;;;7.27;;
23222;SDS011;11780;13.904;100.620;2022-11-20T09:07:41;11.15;;;6.80;;
23222;SDS011;11780;13.904;100.620;2022-11-20T09:10:11;13.98;;;7.68;;
23222;SDS011;11780;13.904;100.620;2022-11-20T09:12:51;10.95;;;6.82;;
23222;SDS011;11780;13.904;100.620;2022-11-20T09:15:22;8.90;;;6.07;;
23222;SDS011;11780;13.904;100.620;2022-11-20T09:17:55;13.07;;;7.22;;
23222;SDS011;11780;13.904;100.620;2022-11-20T09:20:27;11.02;;;7.75;;
23222;SDS011;11780;13.904;100.620;2022-11-20T09:22:59;11.27;;;6.88;;
23222;SDS011;11780;13.904;100.620;2022-11-20T09:25:29;11.35;;;7.30;;
23222;SDS011;11780;13.904;100.620;2022-11-20T09:27:59;12.02;;;7.30;;
23222;SDS011;11780;13.904;100.620;2022-11-20T09:30:29;15.95;;;8.02;;
23222;SDS011;11780;13.904;100.620;2022-11-20T09:33:00;12.07;;;7.83;;
23222;SDS011;11780;13.904;100.620;2022-11-20T09:35:30;13.95;;;8.65;;
23222;SDS011;11780;13.904;100.620;2022-11-20T09:38:06;11.38;;;7.10;;
23222;SDS011;11780;13.904;100.620;2022-11-20T09:40:39;12.75;;;7.88;;
23222;SDS011;11780;13.904;100.620;2022-11-20T09:46:27;17.58;;;9.32;;
23222;SDS011;11780;13.904;100.620;2022-11-20T09:51:59;18.02;;;9.77;;
23222;SDS011;11780;13.904;100.620;2022-11-20T09:54:47;18.67;;;9.95;;
23222;SDS011;11780;13.904;100.620;2022-11-20T09:57:21;15.98;;;9.85;;
23222;SDS011;11780;13.904;100.620;2022-11-20T09:59:56;16.48;;;11.45;;
23222;SDS011;11780;13.904;100.620;2022-11-20T10:05:26;15.40;;;10.60;;
23222;SDS011;11780;13.904;100.620;2022-11-20T10:10:53;16.05;;;10.35;;
23222;SDS011;11780;13.904;100.620;2022-11-20T10:16:36;16.50;;;9.57;;
23222;SDS011;11780;13.904;100.620;2022-11-20T10:19:28;16.70;;;8.88;;
23222;SDS011;11780;13.904;100.620;2022-11-20T10:24:55;19.60;;;9.43;;
23222;SDS011;11780;13.904;100.620;2022-11-20T10:30:59;15.05;;;8.85;;
23222;SDS011;11780;13.904;100.620;2022-11-20T10:33:33;19.10;;;11.05;;
23222;SDS011;11780;13.904;100.620;2022-11-20T10:36:30;15.82;;;9.38;;
23222;SDS011;11780;13.904;100.620;2022-11-20T10:43:32;114.05;;;102.57;;
23222;SDS011;11780;13.904;100.620;2022-11-20T10:46:05;56.05;;;50.38;;
23222;SDS011;11780;13.904;100.620;2022-11-20T10:48:43;19.20;;;11.90;;
23222;SDS011;11780;13.904;100.620;2022-11-20T10:56:50;400.13;;;366.20;;
23222;SDS011;11780;13.904;100.620;2022-11-20T11:02:14;830.67;;;768.53;;
23222;SDS011;11780;13.904;100.620;2022-11-20T11:04:50;767.58;;;709.42;;
23222;SDS011;11780;13.904;100.620;2022-11-20T11:07:25;732.63;;;675.22;;
23222;SDS011;11780;13.904;100.620;2022-11-20T11:12:55;768.55;;;710.78;;
23222;SDS011;11780;13.904;100.620;2022-11-20T11:18:08;758.25;;;699.97;;
23222;SDS011;11780;13.904;100.620;2022-11-20T11:20:40;751.72;;;693.60;;
23222;SDS011;11780;13.904;100.620;2022-11-20T11:26:02;921.42;;;855.15;;
23222;SDS011;11780;13.904;100.620;2022-11-20T11:28:34;249.75;;;228.27;;
23222;SDS011;11780;13.904;100.620;2022-11-20T11:31:05;109.22;;;100.25;;
23222;SDS011;11780;13.904;100.620;2022-11-20T11:33:35;40.73;;;19.00;;
23222;SDS011;11780;13.904;100.620;2022-11-20T11:36:16;30.50;;;14.65;;
23222;SDS011;11780;13.904;100.620;2022-11-20T11:38:50;53.38;;;31.15;;
23222;SDS011;11780;13.904;100.620;2022-11-20T11:41:24;59.58;;;45.20;;
23222;SDS011;11780;13.904;100.620;2022-11-20T11:47:26;217.73;;;202.10;;
23222;SDS011;11780;13.904;100.620;2022-11-20T11:52:53;686.60;;;641.17;;
23222;SDS011;11780;13.904;100.620;2022-11-20T12:07:10;420.52;;;393.35;;
23222;SDS011;11780;13.904;100.620;2022-11-20T12:10:17;550.20;;;514.95;;
23222;SDS011;11780;13.904;100.620;2022-11-20T12:13:00;93.53;;;83.70;;
23222;SDS011;11780;13.904;100.620;2022-11-20T12:15:38;44.00;;;19.60;;
23222;SDS011;11780;13.904;100.620;2022-11-20T12:18:20;86.43;;;78.50;;
23222;SDS011;11780;13.904;100.620;2022-11-20T12:21:01;115.93;;;106.55;;
23222;SDS011;11780;13.904;100.620;2022-11-20T12:23:58;137.20;;;125.30;;
23222;SDS011;11780;13.904;100.620;2022-11-20T12:37:38;140.45;;;128.07;;
23222;SDS011;11780;13.904;100.620;2022-11-20T12:41:11;111.18;;;101.53;;
23222;SDS011;11780;13.904;100.620;2022-11-20T12:55:29;280.05;;;259.13;;
23222;SDS011;11780;13.904;100.620;2022-11-20T13:01:00;353.23;;;330.98;;
23222;SDS011;11780;13.904;100.620;2022-11-20T13:07:16;249.75;;;234.82;;
23222;SDS011;11780;13.904;100.620;2022-11-20T13:09:49;302.20;;;279.67;;
23222;SDS011;11780;13.904;100.620;2022-11-20T13:17:50;30.77;;;14.23;;
23222;SDS011;11780;13.904;100.620;2022-11-20T13:20:32;23.40;;;12.43;;
23222;SDS011;11780;13.904;100.620;2022-11-20T13:23:04;24.90;;;18.45;;
23222;SDS011;11780;13.904;100.620;2022-11-20T13:25:39;19.88;;;11.13;;
23222;SDS011;11780;13.904;100.620;2022-11-20T13:30:50;917.50;;;850.33;;
23222;SDS011;11780;13.904;100.620;2022-11-20T13:36:47;924.10;;;857.35;;
23222;SDS011;11780;13.904;100.620;2022-11-20T13:38:56;104.32;;;97.32;;
23222;SDS011;11780;13.904;100.620;2022-11-20T13:41:28;18.33;;;11.63;;
23222;SDS011;11780;13.904;100.620;2022-11-20T13:46:45;14.63;;;8.23;;
23222;SDS011;11780;13.904;100.620;2022-11-20T13:51:51;20.95;;;11.70;;
23222;SDS011;11780;13.904;100.620;2022-11-20T13:55:01;17.30;;;9.50;;
23222;SDS011;11780;13.904;100.620;2022-11-20T13:57:57;19.23;;;11.02;;
23222;SDS011;11780;13.904;100.620;2022-11-20T14:00:31;17.83;;;12.68;;
23222;SDS011;11780;13.904;100.620;2022-11-20T14:05:36;599.35;;;565.05;;
23222;SDS011;11780;13.904;100.620;2022-11-20T14:08:12;683.78;;;635.85;;
23222;SDS011;11780;13.904;100.620;2022-11-20T14:10:51;624.75;;;588.95;;
23222;SDS011;11780;13.904;100.620;2022-11-20T14:13:31;689.27;;;641.97;;
23222;SDS011;11780;13.904;100.620;2022-11-20T14:16:02;680.93;;;634.33;;
23222;SDS011;11780;13.904;100.620;2022-11-20T14:18:32;612.95;;;576.03;;
23222;SDS011;11780;13.904;100.620;2022-11-20T14:21:02;628.15;;;590.08;;
23222;SDS011;11780;13.904;100.620;2022-11-20T14:23:34;673.42;;;632.70;;
23222;SDS011;11780;13.904;100.620;2022-11-20T14:26:04;612.63;;;575.75;;
23222;SDS011;11780;13.904;100.620;2022-11-20T14:28:35;716.33;;;667.83;;
23222;SDS011;11780;13.904;100.620;2022-11-20T14:31:08;724.20;;;668.97;;
23222;SDS011;11780;13.904;100.620;2022-11-20T14:33:52;657.55;;;617.92;;
23222;SDS011;11780;13.904;100.620;2022-11-20T14:36:23;602.97;;;567.50;;
23222;SDS011;11780;13.904;100.620;2022-11-20T14:38:55;597.95;;;564.10;;
23222;SDS011;11780;13.904;100.620;2022-11-20T14:41:25;620.75;;;586.25;;
23222;SDS011;11780;13.904;100.620;2022-11-20T14:43:58;678.20;;;638.85;;
23222;SDS011;11780;13.904;100.620;2022-11-20T14:46:31;534.90;;;505.08;;
23222;SDS011;11780;13.904;100.620;2022-11-20T14:49:02;690.75;;;642.47;;
23222;SDS011;11780;13.904;100.620;2022-11-20T14:51:38;649.30;;;610.08;;
23222;SDS011;11780;13.904;100.620;2022-11-20T14:57:02;644.35;;;605.13;;
23222;SDS011;11780;13.904;100.620;2022-11-20T14:59:34;572.03;;;537.28;;
23222;SDS011;11780;13.904;100.620;2022-11-20T15:02:13;381.63;;;360.83;;
23222;SDS011;11780;13.904;100.620;2022-11-20T15:04:47;713.25;;;660.13;;
23222;SDS011;11780;13.904;100.620;2022-11-20T15:07:26;660.30;;;621.58;;
23222;SDS011;11780;13.904;100.620;2022-11-20T15:10:08;697.22;;;652.47;;
23222;SDS011;11780;13.904;100.620;2022-11-20T15:12:46;736.40;;;684.65;;
23222;SDS011;11780;13.904;100.620;2022-11-20T15:15:25;724.08;;;670.80;;
23222;SDS011;11780;13.904;100.620;2022-11-20T15:17:59;721.42;;;667.17;;
23222;SDS011;11780;13.904;100.620;2022-11-20T15:20:31;735.95;;;685.42;;
23222;SDS011;11780;13.904;100.620;2022-11-20T15:23:08;741.05;;;690.78;;
23222;SDS011;11780;13.904;100.620;2022-11-20T15:25:44;841.07;;;779.70;;
23222;SDS011;11780;13.904;100.620;2022-11-20T15:30:51;705.17;;;655.50;;
23222;SDS011;11780;13.904;100.620;2022-11-20T15:33:22;459.27;;;435.70;;
23222;SDS011;11780;13.904;100.620;2022-11-20T15:35:52;336.17;;;307.38;;
23222;SDS011;11780;13.904;100.620;2022-11-20T15:38:22;17.60;;;9.02;;
23222;SDS011;11780;13.904;100.620;2022-11-20T15:40:53;23.70;;;12.27;;
23222;SDS011;11780;13.904;100.620;2022-11-20T15:43:23;9.88;;;6.70;;
23222;SDS011;11780;13.904;100.620;2022-11-20T15:45:55;12.93;;;7.80;;
23222;SDS011;11780;13.904;100.620;2022-11-20T15:48:30;13.15;;;7.40;;
23222;SDS011;11780;13.904;100.620;2022-11-20T15:51:32;18.95;;;9.63;;
23222;SDS011;11780;13.904;100.620;2022-11-20T15:54:11;14.70;;;7.22;;
23222;SDS011;11780;13.904;100.620;2022-11-20T15:56:52;13.90;;;7.45;;
23222;SDS011;11780;13.904;100.620;2022-11-20T15:59:23;15.90;;;9.07;;
23222;SDS011;11780;13.904;100.620;2022-11-20T16:01:54;21.15;;;10.57;;
23222;SDS011;11780;13.904;100.620;2022-11-20T16:04:24;19.13;;;8.77;;
23222;SDS011;11780;13.904;100.620;2022-11-20T16:06:55;14.52;;;8.40;;
23222;SDS011;11780;13.904;100.620;2022-11-20T16:09:25;15.93;;;8.37;;
23222;SDS011;11780;13.904;100.620;2022-11-20T16:11:55;15.73;;;8.77;;
23222;SDS011;11780;13.904;100.620;2022-11-20T16:14:28;15.18;;;7.25;;
23222;SDS011;11780;13.904;100.620;2022-11-20T16:17:40;13.32;;;7.75;;
23222;SDS011;11780;13.904;100.620;2022-11-20T16:20:13;16.25;;;8.52;;
23222;SDS011;11780;13.904;100.620;2022-11-20T16:22:43;83.13;;;74.43;;
23222;SDS011;11780;13.904;100.620;2022-11-20T16:25:14;17.88;;;9.05;;
23222;SDS011;11780;13.904;100.620;2022-11-20T16:27:44;12.63;;;8.20;;
23222;SDS011;11780;13.904;100.620;2022-11-20T16:30:15;23.10;;;9.77;;
23222;SDS011;11780;13.904;100.620;2022-11-20T16:32:46;14.73;;;8.07;;
23222;SDS011;11780;13.904;100.620;2022-11-20T16:35:16;22.42;;;11.27;;
23222;SDS011;11780;13.904;100.620;2022-11-20T16:37:46;14.87;;;8.67;;
23222;SDS011;11780;13.904;100.620;2022-11-20T16:40:17;17.48;;;8.55;;
23222;SDS011;11780;13.904;100.620;2022-11-20T16:42:47;15.55;;;8.85;;
23222;SDS011;11780;13.904;100.620;2022-11-20T16:45:18;20.70;;;9.27;;
23222;SDS011;11780;13.904;100.620;2022-11-20T16:47:54;15.57;;;9.20;;
23222;SDS011;11780;13.904;100.620;2022-11-20T16:50:25;16.85;;;8.85;;
23222;SDS011;11780;13.904;100.620;2022-11-20T16:52:55;18.03;;;8.80;;